Providence, Rhode Island
Traffic Map
Current Weather Conditions
Providence, Rhode Island
Broken Clouds
Broken Clouds
35°
Feels Like: 28°
Wind Chill: 28° Ceiling: 9000
Heat Index: 35° Visibility: 10mi
Dew Point: 24° Wind: 9mph
Humidity: 64% Direction: 150° (SSE)
Pressure: 30.47in Gusts: 0mph
Raw Report DataKPVD 161751Z 15008KT 10SM FEW034 BKN090 BKN300 02/M04 A3047 RMK AO2 SLP318 T00171044 10022 21067 56027
Traffic Incident Summary
Active as of:
Severity:
Category:
InformationThere was an issue retrieving the traffic information for this location. Please try a different location or try again shortly.
Advertisements